Time;durP1;ratioP1;P1;durP2;ratioP2;P2;SDS_P1;SDS_P2;PMS_P1;PMS_P2;Temp;Humidity;BMP_temperature;BMP_pressure;BME280_temperature;BME280_humidity;BME280_pressure;Samples;Min_cycle;Max_cycle;Signal;HPM_P1;HPM_P2
2023/09/01 00:00:59;;;;;;;9.55;6.75;;;15.40;99.90;;;;;;5038649;28;20067;-67
2023/09/01 00:03:54;;;;;;;12.13;6.38;;;15.30;99.90;;;;;;4982395;28;20044;-66
2023/09/01 00:06:20;;;;;;;12.82;7.10;;;15.30;99.90;;;;;;5048481;28;20108;-67
2023/09/01 00:08:46;;;;;;;12.98;5.82;;;15.40;99.90;;;;;;5069798;28;20044;-66
2023/09/01 00:11:13;;;;;;;13.25;5.63;;;15.30;99.90;;;;;;5069534;28;20422;-66
2023/09/01 00:13:39;;;;;;;22.40;5.53;;;15.20;99.90;;;;;;5052292;28;21034;-66
2023/09/01 00:16:05;;;;;;;8.15;5.13;;;15.30;99.90;;;;;;5070598;28;21640;-67
2023/09/01 00:18:32;;;;;;;10.50;5.30;;;15.20;99.90;;;;;;5067148;28;22663;-67
2023/09/01 00:21:05;;;;;;;12.23;5.38;;;15.20;99.90;;;;;;5071079;28;22953;-67
2023/09/01 00:23:32;;;;;;;13.77;4.80;;;15.20;99.90;;;;;;5066617;28;24068;-68
2023/09/01 00:25:59;;;;;;;10.60;5.45;;;15.10;99.90;;;;;;5049934;28;24828;-67
2023/09/01 00:28:26;;;;;;;13.02;5.13;;;15.10;99.90;;;;;;5049049;28;25690;-66
2023/09/01 00:30:56;;;;;;;11.25;6.20;;;15.10;99.90;;;;;;5062748;28;25609;-66
2023/09/01 00:33:26;;;;;;;10.35;5.22;;;15.10;99.90;;;;;;5051417;28;24951;-66
2023/09/01 00:35:54;;;;;;;12.45;5.22;;;15.00;99.90;;;;;;5011040;28;28035;-67
2023/09/01 00:38:20;;;;;;;10.75;4.93;;;15.00;99.90;;;;;;4999488;28;28772;-66
2023/09/01 00:40:48;;;;;;;8.80;4.88;;;15.00;99.90;;;;;;5010059;28;29001;-67
2023/09/01 00:43:15;;;;;;;8.95;4.75;;;15.00;99.90;;;;;;5010727;28;30119;-66
2023/09/01 00:45:42;;;;;;;7.75;4.70;;;15.00;99.90;;;;;;5025992;28;30532;-66
2023/09/01 00:48:09;;;;;;;8.88;4.50;;;15.00;99.90;;;;;;5016113;28;31760;-67
2023/09/01 00:50:36;;;;;;;10.05;5.50;;;15.00;99.90;;;;;;4997164;28;32232;-67
2023/09/01 00:53:04;;;;;;;16.15;5.78;;;14.90;99.90;;;;;;5010201;28;33754;-67
2023/09/01 00:55:33;;;;;;;22.27;7.38;;;15.00;99.90;;;;;;5021565;28;34620;-67
2023/09/01 00:58:02;;;;;;;12.77;5.25;;;15.20;99.90;;;;;;5005952;28;34773;-66
2023/09/01 01:00:31;;;;;;;11.77;4.20;;;15.20;99.90;;;;;;4997240;28;35767;-66
2023/09/01 01:03:04;;;;;;;11.75;4.78;;;15.10;99.90;;;;;;4998336;28;36868;-66
2023/09/01 01:05:37;;;;;;;8.27;3.85;;;15.00;99.90;;;;;;5002533;28;37242;-66
2023/09/01 01:08:42;;;;;;;6.55;4.05;;;14.80;99.90;;;;;;5019941;28;38915;-66
2023/09/01 01:11:20;;;;;;;6.80;3.85;;;14.70;99.90;;;;;;4914946;28;39958;-66
2023/09/01 01:13:50;;;;;;;11.68;4.07;;;14.90;99.90;;;;;;4952331;28;40687;-66
2023/09/01 01:16:17;;;;;;;10.43;4.03;;;14.80;99.90;;;;;;4982295;28;41148;-66
2023/09/01 01:18:46;;;;;;;7.00;3.50;;;14.70;99.90;;;;;;4985899;28;42436;-66
2023/09/01 01:21:21;;;;;;;10.38;3.80;;;14.80;99.90;;;;;;5009478;28;43498;-67
2023/09/01 01:23:47;;;;;;;13.05;4.50;;;14.90;99.90;;;;;;4978564;28;44642;-67
2023/09/01 01:26:15;;;;;;;16.90;4.28;;;14.80;99.90;;;;;;4980680;28;45996;-66
2023/09/01 01:28:41;;;;;;;16.55;5.15;;;14.80;99.90;;;;;;4920936;28;46611;-67
2023/09/01 01:31:07;;;;;;;13.18;4.88;;;14.80;99.90;;;;;;4914797;28;24861;-67
2023/09/01 01:33:51;;;;;;;10.40;4.93;;;14.80;99.90;;;;;;4915298;28;57047;-67
2023/09/01 01:36:49;;;;;;;13.05;5.15;;;14.70;99.90;;;;;;4946503;28;49553;-66
2023/09/01 01:39:24;;;;;;;13.00;6.80;;;14.70;99.90;;;;;;4998901;28;48971;-67
2023/09/01 01:41:54;;;;;;;27.77;7.03;;;14.60;99.90;;;;;;5030611;28;49461;-67
2023/09/01 01:44:29;;;;;;;18.52;8.30;;;14.70;99.90;;;;;;4998636;28;50400;-66
2023/09/01 01:46:56;;;;;;;27.38;7.63;;;14.70;99.90;;;;;;4975649;28;49920;-67
2023/09/01 01:49:22;;;;;;;31.52;7.85;;;14.70;99.90;;;;;;5008396;28;49458;-67
2023/09/01 01:51:49;;;;;;;17.08;7.22;;;14.70;99.90;;;;;;5023603;28;49369;-67
2023/09/01 01:56:41;;;;;;;16.98;8.02;;;14.70;99.90;;;;;;5009947;28;72556;-66
2023/09/01 01:59:07;;;;;;;18.38;8.02;;;14.70;99.90;;;;;;4974761;28;56434;-66
2023/09/01 02:01:33;;;;;;;19.95;7.65;;;14.70;99.90;;;;;;4952013;28;55187;-66
2023/09/01 02:03:59;;;;;;;10.98;6.47;;;14.70;99.90;;;;;;4953693;28;54650;-66
2023/09/01 02:06:25;;;;;;;16.80;6.88;;;14.80;99.90;;;;;;4972230;28;30710;-67
2023/09/01 02:08:51;;;;;;;11.90;6.10;;;14.60;99.90;;;;;;4998246;28;31861;-66
2023/09/01 02:11:17;;;;;;;14.52;7.03;;;14.70;99.90;;;;;;4996808;28;25370;-67
2023/09/01 02:13:43;;;;;;;10.52;6.60;;;14.70;99.90;;;;;;4917525;28;32818;-66
2023/09/01 02:16:08;;;;;;;13.25;7.45;;;14.70;99.90;;;;;;4935276;28;24859;-66
2023/09/01 02:18:35;;;;;;;25.33;8.50;;;14.80;99.90;;;;;;4947201;28;32750;-66
2023/09/01 02:21:01;;;;;;;19.88;8.60;;;14.80;99.90;;;;;;4990268;28;24878;-66
2023/09/01 02:23:27;;;;;;;14.57;8.20;;;14.80;99.90;;;;;;4986220;28;33582;-67
2023/09/01 02:25:53;;;;;;;17.50;8.80;;;14.80;99.90;;;;;;4947491;28;32544;-66
2023/09/01 02:28:19;;;;;;;16.55;8.00;;;14.80;99.90;;;;;;4934291;28;34801;-60
2023/09/01 02:30:45;;;;;;;11.85;6.78;;;14.80;99.90;;;;;;4901973;28;34963;-66
2023/09/01 02:33:11;;;;;;;15.27;6.53;;;14.90;99.90;;;;;;4960519;28;34928;-67
2023/09/01 02:35:44;;;;;;;12.43;6.28;;;15.00;99.90;;;;;;4969253;28;35387;-66
2023/09/01 02:38:11;;;;;;;12.38;6.38;;;15.00;99.90;;;;;;4953796;28;35836;-67
2023/09/01 02:40:37;;;;;;;18.80;6.13;;;15.00;99.90;;;;;;4955513;28;24848;-67
2023/09/01 02:43:04;;;;;;;12.77;6.80;;;15.00;99.90;;;;;;4984489;28;24630;-66
2023/09/01 02:45:30;;;;;;;13.93;6.30;;;15.10;99.90;;;;;;4990505;28;36889;-66
2023/09/01 02:47:57;;;;;;;16.13;7.45;;;15.10;99.90;;;;;;4983391;28;37170;-66
2023/09/01 02:50:23;;;;;;;21.38;8.50;;;15.10;99.90;;;;;;5000502;28;37510;-67
2023/09/01 02:52:49;;;;;;;26.30;8.95;;;15.20;99.90;;;;;;5004346;28;37840;-66
2023/09/01 02:55:17;;;;;;;35.83;9.68;;;15.20;99.90;;;;;;4962206;28;38414;-67
2023/09/01 02:57:44;;;;;;;26.50;9.75;;;15.30;99.90;;;;;;4936117;28;24817;-67
2023/09/01 03:00:21;;;;;;;37.92;10.65;;;15.30;99.90;;;;;;4903300;28;39381;-67
2023/09/01 03:02:48;;;;;;;36.42;12.60;;;15.30;99.90;;;;;;4906715;28;24814;-66
2023/09/01 03:05:15;;;;;;;37.90;12.07;;;15.40;99.90;;;;;;4949822;28;24839;-67
2023/09/01 03:07:41;;;;;;;41.78;12.25;;;15.30;99.90;;;;;;4955352;28;40963;-67
2023/09/01 03:10:08;;;;;;;29.38;11.02;;;15.30;99.90;;;;;;4942851;28;25025;-67
2023/09/01 03:12:38;;;;;;;30.33;11.93;;;15.40;99.90;;;;;;4967677;28;24974;-66
2023/09/01 03:15:06;;;;;;;34.50;12.25;;;15.40;99.90;;;;;;4938501;28;49109;-67
2023/09/01 03:17:33;;;;;;;38.08;13.23;;;15.60;99.90;;;;;;4902956;28;25891;-67
2023/09/01 03:19:59;;;;;;;38.60;13.40;;;15.60;99.90;;;;;;4919406;28;42258;-67
2023/09/01 03:22:25;;;;;;;46.88;12.93;;;15.60;99.90;;;;;;4960635;28;29928;-67
2023/09/01 03:24:53;;;;;;;40.58;14.23;;;15.60;99.90;;;;;;4954233;28;42726;-67
2023/09/01 03:27:21;;;;;;;41.10;14.65;;;15.70;99.90;;;;;;4930242;28;49556;-66
2023/09/01 03:29:52;;;;;;;32.67;13.30;;;15.70;99.90;;;;;;4928347;28;30524;-67
2023/09/01 03:32:19;;;;;;;34.55;13.32;;;15.70;99.90;;;;;;4889988;28;48426;-65
2023/09/01 03:34:46;;;;;;;40.33;14.15;;;15.60;99.90;;;;;;4927898;28;49082;-67
2023/09/01 03:37:13;;;;;;;35.33;13.27;;;15.70;99.90;;;;;;4926724;28;49121;-66
2023/09/01 03:39:39;;;;;;;31.90;12.55;;;15.80;99.90;;;;;;4945281;28;24814;-67
2023/09/01 03:42:05;;;;;;;32.15;13.07;;;15.70;99.90;;;;;;4915703;28;24982;-67
2023/09/01 03:44:31;;;;;;;32.97;12.13;;;15.60;99.90;;;;;;4931147;28;25098;-67
2023/09/01 03:46:58;;;;;;;25.85;10.85;;;15.80;99.90;;;;;;4964113;28;48248;-67
2023/09/01 03:49:26;;;;;;;24.73;9.35;;;15.90;99.90;;;;;;4971425;28;48543;-67
2023/09/01 03:51:53;;;;;;;18.92;8.80;;;15.90;99.90;;;;;;4960836;28;71337;-67
2023/09/01 03:54:20;;;;;;;14.43;7.30;;;15.80;99.90;;;;;;4926276;28;61984;-67
2023/09/01 03:56:46;;;;;;;17.45;8.40;;;15.70;99.90;;;;;;4904597;28;58940;-67
2023/09/01 04:05:19;;;;;;;12.45;6.53;;;15.60;99.90;;;;;;5150315;27;20131;-67
2023/09/01 04:07:45;;;;;;;16.27;6.43;;;15.60;99.90;;;;;;5098750;27;20040;-67
2023/09/01 04:10:11;;;;;;;15.98;6.60;;;15.50;99.90;;;;;;5111341;27;20493;-66
2023/09/01 04:12:37;;;;;;;9.55;5.10;;;15.40;99.90;;;;;;5083155;28;20127;-67
2023/09/01 04:15:04;;;;;;;10.38;5.28;;;15.30;99.90;;;;;;5047477;28;20045;-67
2023/09/01 04:17:31;;;;;;;11.52;5.22;;;15.30;99.90;;;;;;5063250;28;20063;-67
2023/09/01 04:19:57;;;;;;;10.73;6.40;;;15.20;99.90;;;;;;5087791;28;20043;-67
2023/09/01 04:22:23;;;;;;;12.30;5.45;;;15.30;99.90;;;;;;5052305;28;20127;-67
2023/09/01 04:24:49;;;;;;;7.68;4.97;;;15.30;99.90;;;;;;5091941;27;20055;-67
2023/09/01 04:27:15;;;;;;;8.43;5.25;;;15.30;99.90;;;;;;5078432;28;25278;-67
2023/09/01 04:29:41;;;;;;;9.23;5.20;;;15.20;99.90;;;;;;5022722;27;20041;-67
2023/09/01 04:32:07;;;;;;;13.50;5.87;;;15.30;99.90;;;;;;5027052;28;1382142;-67
2023/09/01 04:34:33;;;;;;;12.13;5.85;;;15.30;99.90;;;;;;5055561;28;20048;-69
2023/09/01 04:36:59;;;;;;;12.57;6.32;;;15.40;99.90;;;;;;5035190;28;20588;-69
2023/09/01 04:39:25;;;;;;;20.98;7.43;;;15.30;99.90;;;;;;5032872;28;20054;-70
2023/09/01 04:41:51;;;;;;;19.60;7.03;;;15.40;99.90;;;;;;5011964;28;20037;-69
2023/09/01 04:44:17;;;;;;;17.80;7.63;;;15.20;99.90;;;;;;5067580;28;20059;-69
2023/09/01 04:46:43;;;;;;;22.80;7.95;;;15.40;99.90;;;;;;5099378;28;20122;-69
2023/09/01 04:49:09;;;;;;;27.42;8.63;;;15.60;99.90;;;;;;5061846;28;20064;-69
2023/09/01 04:51:36;;;;;;;21.05;8.35;;;15.60;99.90;;;;;;5040198;28;20136;-69
2023/09/01 04:54:02;;;;;;;16.52;7.10;;;15.70;99.90;;;;;;5063331;28;20131;-69
2023/09/01 04:56:28;;;;;;;19.35;6.95;;;15.70;99.90;;;;;;5029505;28;20073;-68
2023/09/01 04:58:54;;;;;;;15.80;6.20;;;15.60;99.90;;;;;;5024038;28;20048;-69
2023/09/01 05:01:20;;;;;;;14.85;7.22;;;15.60;99.90;;;;;;5058526;28;20032;-69
2023/09/01 05:03:47;;;;;;;12.88;6.97;;;15.50;99.90;;;;;;5035037;28;20461;-69
2023/09/01 05:06:13;;;;;;;15.95;7.35;;;15.70;99.90;;;;;;5058462;28;20037;-69
2023/09/01 05:08:39;;;;;;;10.63;6.70;;;15.70;99.90;;;;;;5033380;28;20036;-69
2023/09/01 05:11:05;;;;;;;17.48;8.30;;;15.70;99.90;;;;;;5056233;28;20049;-69
2023/09/01 05:13:31;;;;;;;35.75;11.65;;;15.90;99.90;;;;;;5036644;28;20373;-69
2023/09/01 05:15:57;;;;;;;45.28;13.82;;;15.90;99.90;;;;;;5037860;28;20041;-70
2023/09/01 05:18:24;;;;;;;49.25;16.42;;;15.70;99.90;;;;;;5021998;28;20380;-69
2023/09/01 05:20:51;;;;;;;53.25;15.48;;;15.60;99.90;;;;;;4975066;28;20276;-69
2023/09/01 05:23:17;;;;;;;58.35;16.83;;;15.50;99.90;;;;;;4968764;28;20368;-69
2023/09/01 05:25:43;;;;;;;51.80;16.75;;;15.60;99.90;;;;;;4911638;28;20097;-69
2023/09/01 05:28:09;;;;;;;56.22;17.10;;;15.80;99.90;;;;;;4934783;28;20042;-69
2023/09/01 05:30:37;;;;;;;42.38;15.20;;;15.90;99.90;;;;;;4943743;28;20039;-69
2023/09/01 05:33:04;;;;;;;42.58;15.55;;;16.00;99.90;;;;;;4962490;28;20061;-69
2023/09/01 05:35:30;;;;;;;40.80;14.85;;;16.10;99.90;;;;;;4985300;28;20050;-69
2023/09/01 05:37:56;;;;;;;33.83;13.35;;;16.20;99.90;;;;;;4958998;28;20378;-70
2023/09/01 05:40:23;;;;;;;44.55;18.35;;;16.40;99.90;;;;;;4963115;28;24422;-69
2023/09/01 05:42:49;;;;;;;40.03;17.02;;;16.50;99.90;;;;;;4919264;28;21900;-69
2023/09/01 05:45:15;;;;;;;33.55;14.07;;;16.60;99.90;;;;;;4969522;28;22209;-69
2023/09/01 05:47:43;;;;;;;32.83;15.02;;;16.60;99.90;;;;;;4978761;28;23024;-69
2023/09/01 05:50:09;;;;;;;37.85;13.77;;;16.70;99.90;;;;;;4938934;28;23880;-69
2023/09/01 05:52:35;;;;;;;29.08;11.25;;;16.90;99.90;;;;;;4946027;28;24607;-69
2023/09/01 05:55:01;;;;;;;40.53;14.68;;;17.10;99.90;;;;;;4926673;28;27232;-69
2023/09/01 05:57:27;;;;;;;39.15;14.77;;;17.20;99.90;;;;;;4965808;28;25063;-69
2023/09/01 05:59:53;;;;;;;33.38;12.95;;;16.90;99.90;;;;;;4982132;28;26957;-69
2023/09/01 06:02:19;;;;;;;33.72;14.60;;;16.60;99.90;;;;;;4987144;28;28026;-69
2023/09/01 06:04:45;;;;;;;41.40;16.45;;;16.50;99.90;;;;;;4985478;28;25819;-69
2023/09/01 06:07:11;;;;;;;40.80;17.80;;;16.70;99.90;;;;;;4982445;28;28876;-69
2023/09/01 06:09:37;;;;;;;38.75;17.10;;;16.90;99.90;;;;;;5002423;28;29608;-69
2023/09/01 06:12:03;;;;;;;38.63;16.60;;;17.20;99.90;;;;;;4995605;28;29951;-70
2023/09/01 06:14:30;;;;;;;40.13;17.08;;;17.40;99.90;;;;;;4990865;28;30612;-69
2023/09/01 06:16:56;;;;;;;32.65;14.98;;;17.40;99.90;;;;;;5010164;28;25454;-69
2023/09/01 06:19:22;;;;;;;32.88;16.65;;;17.70;99.90;;;;;;5007262;28;32351;-69
2023/09/01 06:21:50;;;;;;;28.10;13.65;;;17.50;99.90;;;;;;5007611;28;33016;-69
2023/09/01 06:24:16;;;;;;;34.40;18.50;;;17.90;99.90;;;;;;4977256;28;32965;-69
2023/09/01 06:26:42;;;;;;;35.22;21.40;;;18.30;99.90;;;;;;4974878;28;34098;-69
2023/09/01 06:29:08;;;;;;;27.98;17.45;;;18.60;99.90;;;;;;4975528;28;35229;-69
2023/09/01 06:34:03;;;;;;;37.97;21.10;;;18.90;99.90;;;;;;4970653;28;35617;-69
2023/09/01 06:36:29;;;;;;;35.75;19.92;;;18.90;99.90;;;;;;4982030;28;36124;-69
2023/09/01 06:38:56;;;;;;;38.83;18.63;;;19.40;99.90;;;;;;4995481;28;36733;-69
2023/09/01 06:41:37;;;;;;;30.27;16.85;;;19.90;99.90;;;;;;4987356;28;36830;-69
2023/09/01 06:44:09;;;;;;;27.92;15.35;;;20.10;99.90;;;;;;4865788;28;38588;-68
2023/09/01 06:46:35;;;;;;;28.42;15.38;;;20.30;99.90;;;;;;4932882;28;39266;-69
2023/09/01 06:49:01;;;;;;;24.92;14.60;;;20.70;99.90;;;;;;4966443;28;41389;-69
2023/09/01 06:51:29;;;;;;;32.35;16.75;;;21.10;99.90;;;;;;4952745;28;42016;-69
2023/09/01 06:53:55;;;;;;;33.88;15.90;;;21.20;99.90;;;;;;4952057;28;43487;-68
2023/09/01 06:56:21;;;;;;;28.42;15.95;;;21.20;99.90;;;;;;4918034;28;44652;-69
2023/09/01 06:58:48;;;;;;;30.45;17.05;;;21.30;99.90;;;;;;4916313;28;25684;-67
2023/09/01 07:01:16;;;;;;;30.55;16.15;;;21.30;99.90;;;;;;4897509;28;47127;-67
2023/09/01 07:03:42;;;;;;;26.95;15.80;;;21.30;99.90;;;;;;4923109;28;47454;-66
2023/09/01 07:06:08;;;;;;;29.38;15.32;;;21.50;99.90;;;;;;4943614;28;48655;-67
2023/09/01 07:08:34;;;;;;;25.50;14.77;;;21.80;99.90;;;;;;4967017;28;50246;-68
2023/09/01 07:11:05;;;;;;;25.17;13.82;;;22.20;99.90;;;;;;4924180;28;57567;-68
2023/09/01 07:13:31;;;;;;;;;;;22.50;99.90;;;;;;4922576;28;50215;-68
2023/09/01 07:15:57;;;;;;;26.40;13.13;;;22.30;99.90;;;;;;4938819;28;36597;-68
2023/09/01 07:18:25;;;;;;;18.98;12.32;;;22.70;98.40;;;;;;4919266;28;36551;-69
2023/09/01 07:20:52;;;;;;;24.05;13.18;;;22.90;97.50;;;;;;4927145;28;25022;-69
2023/09/01 07:23:18;;;;;;;23.23;15.38;;;22.40;98.30;;;;;;4957764;28;25038;-69
2023/09/01 07:25:44;;;;;;;27.00;15.75;;;22.70;98.30;;;;;;4956332;28;38188;-68
2023/09/01 07:28:13;;;;;;;25.23;14.43;;;22.70;98.20;;;;;;4973111;28;48577;-68
2023/09/01 07:30:40;;;;;;;23.02;14.55;;;22.70;98.40;;;;;;4977851;28;40243;-68
2023/09/01 07:33:06;;;;;;;24.15;14.52;;;23.30;97.30;;;;;;4992683;28;40415;-69
2023/09/01 07:35:32;;;;;;;24.60;15.73;;;23.90;96.80;;;;;;4978898;28;40822;-68
2023/09/01 07:37:58;;;;;;;20.80;13.48;;;23.80;96.40;;;;;;4979570;28;42293;-69
2023/09/01 07:40:24;;;;;;;26.30;14.02;;;23.90;95.90;;;;;;4945147;28;24720;-68
2023/09/01 07:42:50;;;;;;;21.27;14.07;;;23.60;95.10;;;;;;4940488;28;24555;-69
2023/09/01 07:45:16;;;;;;;19.95;12.70;;;23.50;94.50;;;;;;4888450;28;43785;-68
2023/09/01 07:47:43;;;;;;;23.45;13.65;;;23.60;94.50;;;;;;4949176;28;44240;-69
2023/09/01 07:50:09;;;;;;;28.05;13.32;;;23.30;97.40;;;;;;4969782;28;24766;-69
2023/09/01 07:52:36;;;;;;;16.00;11.25;;;23.60;96.00;;;;;;4978909;28;25161;-69
2023/09/01 07:55:05;;;;;;;18.40;13.18;;;24.10;95.60;;;;;;4969117;28;25051;-68
2023/09/01 07:57:31;;;;;;;19.27;12.80;;;24.40;93.60;;;;;;4929414;28;46139;-62
2023/09/01 07:59:57;;;;;;;15.93;11.15;;;24.10;93.70;;;;;;4943430;28;45905;-69
2023/09/01 08:02:23;;;;;;;15.85;10.63;;;24.30;94.70;;;;;;4909585;28;49433;-69
2023/09/01 08:04:49;;;;;;;14.60;10.63;;;24.50;94.20;;;;;;4907200;28;48985;-69
2023/09/01 08:07:15;;;;;;;12.45;9.75;;;24.80;92.40;;;;;;4943962;28;49307;-69
2023/09/01 08:09:41;;;;;;;12.73;9.43;;;25.00;94.70;;;;;;4911436;28;47881;-69
2023/09/01 08:12:08;;;;;;;12.25;9.10;;;25.50;91.00;;;;;;4912435;28;72708;-69
2023/09/01 08:14:34;;;;;;;13.00;9.27;;;25.70;90.40;;;;;;4936397;28;26870;-69
2023/09/01 08:17:00;;;;;;;14.40;9.60;;;25.80;90.40;;;;;;4942049;28;26815;-70
2023/09/01 08:19:26;;;;;;;12.70;9.63;;;25.90;86.40;;;;;;4957242;28;49374;-70
2023/09/01 08:21:52;;;;;;;12.02;8.82;;;26.20;88.00;;;;;;4933631;28;48587;-70
2023/09/01 08:24:18;;;;;;;9.52;7.32;;;26.40;85.20;;;;;;4949473;28;28959;-69
2023/09/01 08:26:44;;;;;;;11.00;7.10;;;26.80;80.90;;;;;;4912510;28;49304;-68
2023/09/01 08:29:10;;;;;;;9.43;5.70;;;27.30;77.70;;;;;;4932603;28;25593;-69
2023/09/01 08:31:36;;;;;;;14.30;5.80;;;27.60;76.50;;;;;;4939811;28;49262;-69
2023/09/01 08:34:02;;;;;;;9.82;5.20;;;27.70;73.20;;;;;;4922243;28;55962;-69
2023/09/01 08:36:29;;;;;;;8.48;4.80;;;28.00;67.90;;;;;;4908971;28;49233;-69
2023/09/01 08:38:55;;;;;;;11.80;5.63;;;28.00;69.30;;;;;;4903765;28;49479;-70
2023/09/01 08:41:22;;;;;;;12.55;6.22;;;28.10;65.50;;;;;;4857734;28;48894;-70
2023/09/01 08:43:50;;;;;;;14.35;6.72;;;27.60;66.30;;;;;;4883849;28;49711;-69
2023/09/01 08:46:21;;;;;;;15.10;7.40;;;28.00;63.80;;;;;;4850330;28;49531;-69
2023/09/01 08:48:47;;;;;;;11.00;7.13;;;28.40;63.90;;;;;;4852874;28;49690;-70
2023/09/01 08:51:14;;;;;;;11.45;6.60;;;28.50;59.40;;;;;;4827617;28;50077;-69
2023/09/01 08:53:42;;;;;;;11.85;6.30;;;28.60;60.50;;;;;;4872202;28;48663;-69
2023/09/01 08:56:08;;;;;;;9.13;6.30;;;27.80;58.80;;;;;;4827608;28;49340;-69
2023/09/01 08:58:36;;;;;;;8.10;5.90;;;28.10;66.10;;;;;;4904723;28;74182;-70
2023/09/01 09:01:03;;;;;;;7.50;6.05;;;28.40;60.60;;;;;;4868320;28;73037;-69
2023/09/01 09:03:29;;;;;;;9.77;6.43;;;28.90;60.60;;;;;;4852491;28;76764;-69
2023/09/01 09:06:13;;;;;;;10.52;7.20;;;29.10;58.40;;;;;;5069699;28;20383;-68
2023/09/01 09:08:39;;;;;;;14.40;9.10;;;29.20;56.20;;;;;;5057507;28;20028;-68
2023/09/01 09:11:13;;;;;;;10.10;7.63;;;28.60;56.40;;;;;;5046337;28;20037;-69
2023/09/01 09:13:40;;;;;;;13.40;8.27;;;28.60;56.60;;;;;;5049068;28;20021;-69
2023/09/01 09:16:07;;;;;;;13.38;8.50;;;29.00;59.20;;;;;;5051579;28;20048;-68
2023/09/01 09:18:33;;;;;;;11.27;8.05;;;29.60;56.00;;;;;;5044867;28;20029;-69
2023/09/01 09:21:00;;;;;;;11.68;7.32;;;29.40;54.50;;;;;;5050455;28;20057;-69
2023/09/01 09:23:45;;;;;;;12.70;7.60;;;28.80;53.50;;;;;;5049514;28;20037;-69
2023/09/01 09:26:12;;;;;;;13.40;6.75;;;29.40;56.20;;;;;;5047730;28;20033;-69
2023/09/01 09:28:40;;;;;;;13.35;6.55;;;28.40;52.90;;;;;;5051240;28;20029;-68
2023/09/01 09:31:12;;;;;;;17.63;8.50;;;28.60;55.30;;;;;;5050660;28;20065;-70
2023/09/01 09:33:42;;;;;;;14.23;6.90;;;28.80;54.00;;;;;;5042310;28;20420;-70
2023/09/01 09:36:08;;;;;;;11.07;6.03;;;29.20;53.70;;;;;;5049811;28;20017;-69
2023/09/01 09:38:50;;;;;;;13.88;7.80;;;29.40;53.20;;;;;;5046431;28;20036;-70
2023/09/01 09:41:17;;;;;;;10.55;6.30;;;29.40;52.00;;;;;;5047758;28;20033;-68
2023/09/01 09:43:44;;;;;;;11.88;6.80;;;29.80;53.00;;;;;;5050830;28;20028;-70
2023/09/01 09:46:10;;;;;;;9.60;5.32;;;29.50;51.30;;;;;;5051043;28;20026;-69
2023/09/01 09:48:38;;;;;;;8.60;5.32;;;29.60;49.90;;;;;;5042173;28;20033;-69
2023/09/01 09:51:16;;;;;;;7.35;5.53;;;30.20;50.00;;;;;;5041093;28;20109;-69
2023/09/01 09:53:50;;;;;;;7.00;5.40;;;30.50;50.00;;;;;;5041304;28;20029;-69
2023/09/01 09:56:33;;;;;;;7.10;5.00;;;30.10;48.80;;;;;;5050321;28;20348;-70
2023/09/01 09:59:05;;;;;;;10.13;4.38;;;30.00;49.10;;;;;;5045283;28;20033;-70
2023/09/01 10:01:38;;;;;;;9.73;3.50;;;30.50;47.30;;;;;;5036134;28;20032;-70
2023/09/01 10:04:05;;;;;;;3.42;3.13;;;30.00;45.60;;;;;;5046135;28;20081;-70
2023/09/01 10:06:33;;;;;;;6.13;4.40;;;29.10;46.70;;;;;;5049497;28;20120;-70
2023/09/01 10:09:03;;;;;;;3.95;2.22;;;29.20;48.00;;;;;;5050268;28;20060;-70
2023/09/01 10:11:29;;;;;;;3.45;2.60;;;28.60;45.90;;;;;;5046237;28;20044;-70
2023/09/01 10:13:56;;;;;;;2.88;2.40;;;27.90;47.70;;;;;;5047092;28;20087;-70
2023/09/01 10:16:23;;;;;;;4.95;2.45;;;28.30;46.20;;;;;;5036960;28;20036;-69
2023/09/01 10:18:50;;;;;;;4.65;2.60;;;28.90;48.80;;;;;;5034768;28;20032;-70
2023/09/01 10:21:16;;;;;;;4.18;3.25;;;28.70;44.70;;;;;;5036837;28;20734;-69
2023/09/01 10:23:44;;;;;;;5.03;3.05;;;28.40;48.70;;;;;;5036947;28;20091;-69
2023/09/01 10:26:25;;;;;;;3.15;2.83;;;28.90;48.00;;;;;;5036954;28;20052;-70
2023/09/01 10:28:55;;;;;;;2.50;2.22;;;29.70;44.10;;;;;;5033014;28;20064;-70
2023/09/01 10:31:23;;;;;;;5.95;2.95;;;30.10;42.40;;;;;;5030348;28;20021;-70
2023/09/01 10:34:12;;;;;;;5.30;2.85;;;30.60;40.30;;;;;;5032487;28;20044;-70
2023/09/01 10:36:42;;;;;;;5.32;2.72;;;30.90;39.70;;;;;;5032533;28;20036;-70
2023/09/01 10:39:18;;;;;;;3.88;2.63;;;31.00;43.40;;;;;;5036929;28;20034;-70
2023/09/01 10:41:58;;;;;;;4.97;2.60;;;31.70;38.80;;;;;;5036730;28;20031;-70
2023/09/01 10:44:47;;;;;;;5.82;3.17;;;31.80;38.70;;;;;;5036420;28;20064;-70
2023/09/01 10:47:31;;;;;;;3.03;2.47;;;32.20;39.00;;;;;;5029952;28;20212;-70
2023/09/01 10:49:58;;;;;;;2.85;1.60;;;31.50;36.60;;;;;;5036660;28;20044;-70
2023/09/01 10:52:26;;;;;;;2.00;1.80;;;30.80;33.20;;;;;;5036703;28;20406;-70
2023/09/01 10:55:08;;;;;;;6.80;2.85;;;31.60;32.50;;;;;;5016970;28;20136;-70
2023/09/01 10:57:50;;;;;;;2.35;1.67;;;31.00;35.40;;;;;;5026177;28;20026;-70
2023/09/01 11:00:30;;;;;;;1.60;1.50;;;31.50;35.20;;;;;;5031224;28;20123;-70
2023/09/01 11:03:15;;;;;;;;;;;31.40;33.00;;;;;;5036848;28;20383;-70
2023/09/01 11:05:41;;;;;;;9.18;3.00;;;31.20;32.20;;;;;;5034960;28;19921;-69
2023/09/01 11:08:17;;;;;;;4.63;2.35;;;31.60;30.50;;;;;;5036709;28;20077;-70
2023/09/01 11:10:43;;;;;;;3.42;1.80;;;31.60;31.60;;;;;;5036307;28;20049;-70
2023/09/01 11:13:15;;;;;;;2.83;1.95;;;32.00;32.00;;;;;;5034093;28;20053;-70
2023/09/01 11:15:49;;;;;;;3.20;1.75;;;32.30;30.90;;;;;;5027035;28;20386;-70
2023/09/01 11:18:23;;;;;;;2.53;1.63;;;32.80;30.00;;;;;;5035608;28;20025;-70
2023/09/01 11:20:54;;;;;;;3.08;2.13;;;32.50;29.00;;;;;;5036021;28;20029;-70
2023/09/01 11:23:24;;;;;;;6.43;3.10;;;32.60;29.20;;;;;;5036068;28;20032;-70
2023/09/01 11:25:57;;;;;;;4.35;2.28;;;31.50;30.30;;;;;;5035764;28;20095;-70
2023/09/01 11:28:25;;;;;;;3.00;2.35;;;32.20;29.00;;;;;;5034908;28;20044;-70
2023/09/01 11:30:57;;;;;;;4.78;2.83;;;32.30;29.40;;;;;;5035192;28;20108;-71
2023/09/01 11:33:25;;;;;;;3.72;1.90;;;32.20;31.00;;;;;;5025418;28;20037;-70
2023/09/01 11:36:04;;;;;;;3.30;1.45;;;33.00;29.30;;;;;;5033596;28;20747;-71
2023/09/01 11:38:30;;;;;;;3.25;2.38;;;33.10;28.30;;;;;;5035695;28;20029;-71
2023/09/01 11:40:57;;;;;;;2.55;1.67;;;33.30;27.10;;;;;;5035970;28;20123;-71
2023/09/01 11:43:25;;;;;;;3.42;2.35;;;31.10;27.80;;;;;;5033306;28;20080;-71
2023/09/01 11:45:51;;;;;;;5.38;2.72;;;31.50;29.10;;;;;;5022578;28;20026;-69
2023/09/01 11:48:30;;;;;;;3.97;2.83;;;32.40;30.00;;;;;;5026321;28;20076;-69
2023/09/01 11:50:58;;;;;;;3.75;2.47;;;33.00;29.20;;;;;;5015537;28;20566;-68
2023/09/01 11:53:32;;;;;;;2.90;2.42;;;33.00;27.90;;;;;;5023652;28;20017;-69
2023/09/01 11:56:01;;;;;;;7.38;3.30;;;33.20;28.70;;;;;;5033363;28;20100;-70
2023/09/01 11:58:33;;;;;;;2.25;1.92;;;33.10;28.10;;;;;;5034417;28;20025;-69
2023/09/01 12:01:09;;;;;;;2.90;1.80;;;33.20;27.50;;;;;;5024201;28;20088;-70
2023/09/01 12:03:35;;;;;;;2.50;1.63;;;33.50;27.10;;;;;;5028876;28;20030;-69
2023/09/01 12:06:01;;;;;;;7.07;2.10;;;32.70;25.90;;;;;;5020903;28;20067;-70
2023/09/01 12:08:27;;;;;;;5.45;2.55;;;30.80;25.40;;;;;;5024101;28;20063;-69
2023/09/01 12:11:05;;;;;;;3.05;2.20;;;31.40;27.30;;;;;;5029182;28;20068;-69
2023/09/01 12:13:31;;;;;;;7.53;3.10;;;31.80;27.30;;;;;;5027955;28;20021;-70
2023/09/01 12:15:59;;;;;;;7.20;3.40;;;32.20;29.10;;;;;;5021105;28;20068;-70
2023/09/01 12:18:38;;;;;;;5.20;2.90;;;32.10;26.90;;;;;;5027523;28;20091;-71
2023/09/01 12:21:06;;;;;;;4.95;2.75;;;32.00;26.40;;;;;;5014615;28;20025;-70
2023/09/01 12:23:35;;;;;;;3.83;2.33;;;31.90;26.90;;;;;;5017508;28;20042;-69
2023/09/01 12:26:01;;;;;;;10.05;3.88;;;32.50;25.40;;;;;;5034606;28;20493;-70
2023/09/01 12:28:29;;;;;;;5.35;2.08;;;32.40;24.20;;;;;;5034485;28;20026;-70
2023/09/01 12:30:56;;;;;;;5.50;2.33;;;32.10;25.50;;;;;;5030353;28;20053;-70
2023/09/01 12:33:22;;;;;;;3.00;1.60;;;32.40;24.80;;;;;;5025613;28;20061;-70
2023/09/01 12:35:50;;;;;;;5.90;2.17;;;32.50;25.20;;;;;;5034343;28;20029;-70
2023/09/01 12:38:16;;;;;;;3.53;1.70;;;32.80;25.20;;;;;;5034477;28;20037;-70
2023/09/01 12:40:42;;;;;;;2.83;1.65;;;32.80;24.70;;;;;;5034002;28;20029;-70
2023/09/01 12:43:14;;;;;;;2.17;1.42;;;33.30;26.50;;;;;;5026807;28;20021;-71
2023/09/01 12:45:40;;;;;;;2.10;1.30;;;33.20;25.30;;;;;;5014477;28;20080;-70
2023/09/01 12:48:07;;;;;;;3.13;1.75;;;33.00;24.60;;;;;;5042620;28;20025;-69
2023/09/01 12:50:33;;;;;;;2.33;1.48;;;33.30;22.70;;;;;;5034364;28;20030;-70
2023/09/01 12:52:59;;;;;;;2.15;1.30;;;32.50;21.90;;;;;;5034448;28;20029;-70
2023/09/01 12:55:27;;;;;;;2.10;1.13;;;32.90;22.40;;;;;;5034394;28;20037;-70